Time;durP1;ratioP1;P1;durP2;ratioP2;P2;SDS_P1;SDS_P2;PMS_P1;PMS_P2;Temp;Humidity;BMP_temperature;BMP_pressure;BME280_temperature;BME280_humidity;BME280_pressure;Samples;Min_cycle;Max_cycle;Signal;HPM_P1;HPM_P2
2021/04/01 00:43:33;;;;;;;14.13;8.73;;;;;;;7.78;48.42;99351.25;5084932;23;20041;-85
2021/04/01 00:54:00;;;;;;;7.88;5.43;;;;;;;7.80;48.84;99323.31;5720563;23;20071;-87
2021/04/01 00:56:49;;;;;;;11.57;5.80;;;;;;;7.81;48.82;99313.44;5392133;23;20038;-84
2021/04/01 04:29:28;;;;;;;8.13;5.78;;;;;;;7.24;50.87;99219.72;4966490;28;20118;-83
2021/04/01 04:31:55;;;;;;;9.75;6.47;;;;;;;7.05;52.31;99251.97;4949643;29;20043;-83
2021/04/01 04:34:37;;;;;;;8.63;6.68;;;;;;;6.73;52.01;99244.63;4966956;29;20042;-83
2021/04/01 04:37:23;;;;;;;13.85;6.80;;;;;;;6.50;53.36;99282.03;4969587;28;20512;-82
2021/04/01 04:46:08;;;;;;;9.18;6.57;;;;;;;6.12;54.06;99263.13;4917001;26;20054;-81
2021/04/01 05:16:39;;;;;;;10.50;6.82;;;;;;;6.64;55.95;99323.19;5142559;23;20038;-83
2021/04/01 06:18:21;;;;;;;7.35;5.78;;;;;;;8.05;48.64;99387.75;6103261;23;20213;31
2021/04/01 06:23:43;;;;;;;10.68;6.30;;;;;;;8.20;48.23;99389.75;4978716;23;20063;-78
2021/04/01 06:26:16;;;;;;;10.27;6.25;;;;;;;8.31;46.90;99410.91;4941766;29;20499;-78
2021/04/01 06:28:47;;;;;;;9.40;5.80;;;;;;;8.31;47.14;99402.94;4949996;28;20033;-81
2021/04/01 06:31:23;;;;;;;8.93;5.60;;;;;;;8.35;46.13;99397.91;4959501;28;20105;-80
2021/04/01 06:33:50;;;;;;;9.00;6.50;;;;;;;8.37;46.33;99401.09;4959579;28;20031;-79
2021/04/01 06:36:22;;;;;;;8.52;5.95;;;;;;;8.47;47.01;99400.41;4964140;28;20455;-82
2021/04/01 06:38:55;;;;;;;9.25;6.47;;;;;;;8.54;45.84;99401.00;4970254;28;20029;-81
2021/04/01 06:55:23;;;;;;;8.60;5.50;;;;;;;9.10;43.64;99419.31;4990667;28;20078;-80
2021/04/01 07:02:20;;;;;;;9.65;6.28;;;;;;;8.95;43.66;99406.66;5076648;23;20065;-81
2021/04/01 07:05:37;;;;;;;9.68;5.45;;;;;;;8.92;44.92;99401.03;4939076;28;20048;-83
2021/04/01 07:12:34;;;;;;;14.98;6.32;;;;;;;8.90;44.34;99411.97;4895006;29;20060;-83
2021/04/01 07:15:28;;;;;;;7.32;6.22;;;;;;;8.90;43.96;99409.31;4875286;29;20042;-81
2021/04/01 07:46:32;;;;;;;10.30;4.97;;;;;;;9.72;43.23;99405.50;4838727;29;20049;-82
2021/04/01 07:50:05;;;;;;;6.68;4.40;;;;;;;9.86;43.05;99408.47;4836782;29;20076;-84
2021/04/01 07:52:45;;;;;;;6.43;5.00;;;;;;;9.92;42.47;99404.75;4824784;29;20082;-82
2021/04/01 07:56:30;;;;;;;11.15;5.25;;;;;;;9.86;41.53;99390.59;4841058;29;20060;-81
2021/04/01 08:09:23;;;;;;;7.90;5.30;;;;;;;10.03;42.11;99410.94;4935108;29;20293;-84
2021/04/01 08:12:32;;;;;;;8.43;5.47;;;;;;;10.02;42.49;99394.13;4890931;29;20031;-90
2021/04/01 08:15:24;;;;;;;11.50;5.80;;;;;;;10.18;42.78;99388.78;4900360;29;20036;-79
2021/04/01 08:20:51;;;;;;;11.57;6.47;;;;;;;10.21;42.16;99402.41;4908633;29;20032;-81
2021/04/01 08:23:57;;;;;;;9.85;6.82;;;;;;;10.16;42.01;99396.28;4921608;29;20048;-81
2021/04/01 08:33:05;;;;;;;7.78;5.60;;;;;;;10.21;43.12;99380.25;4912475;29;20059;-83
2021/04/01 08:35:41;;;;;;;8.00;5.93;;;;;;;10.32;42.79;99383.75;4905610;29;20512;-80
2021/04/01 08:38:39;;;;;;;9.95;6.63;;;;;;;10.32;41.90;99392.56;4898511;29;20028;-85
2021/04/01 08:42:00;;;;;;;7.68;6.00;;;;;;;10.32;41.54;99384.53;4912778;29;20083;-82
2021/04/01 08:45:23;;;;;;;8.30;5.57;;;;;;;10.27;41.71;99370.38;4902618;29;20278;-83
2021/04/01 08:48:34;;;;;;;9.35;6.78;;;;;;;10.35;42.07;99380.53;4936181;29;20108;-84
2021/04/01 08:50:59;;;;;;;10.10;5.80;;;;;;;10.30;41.88;99381.34;4919195;29;20052;-81
2021/04/01 08:57:44;;;;;;;8.70;5.97;;;;;;;10.25;42.03;99373.28;4840841;29;20064;-82
2021/04/01 09:00:15;;;;;;;9.07;6.25;;;;;;;10.32;42.05;99367.69;4838301;29;20036;-81
2021/04/01 09:02:53;;;;;;;9.90;6.35;;;;;;;10.31;42.00;99366.88;4841021;29;20040;-81
2021/04/01 09:08:47;;;;;;;10.35;6.97;;;;;;;10.60;42.71;99365.59;4856877;29;20158;-85
2021/04/01 09:21:25;;;;;;;9.30;5.75;;;;;;;10.76;41.27;99353.03;4897338;29;20085;-90
2021/04/01 09:23:55;;;;;;;7.50;6.28;;;;;;;11.00;42.77;99345.22;4871233;29;20468;-88
2021/04/01 09:26:24;;;;;;;7.38;5.43;;;;;;;11.11;41.42;99352.16;4883188;29;20024;-88
2021/04/01 09:28:59;;;;;;;9.98;6.07;;;;;;;11.20;40.96;99339.81;4900630;29;20055;-87
2021/04/01 09:31:26;;;;;;;8.98;6.50;;;;;;;11.35;42.43;99344.31;4924768;29;20020;-87
2021/04/01 09:33:53;;;;;;;8.15;5.18;;;;;;;11.39;40.29;99339.22;4900339;29;20080;-87
2021/04/01 09:36:20;;;;;;;7.57;5.03;;;;;;;11.47;39.45;99351.22;4899884;29;20032;-88
2021/04/01 09:38:54;;;;;;;8.68;5.50;;;;;;;11.48;38.17;99344.78;4899893;29;20028;-87
2021/04/01 09:41:39;;;;;;;6.72;5.53;;;;;;;11.44;39.01;99347.22;4899685;29;20028;-88
2021/04/01 09:44:07;;;;;;;8.23;6.10;;;;;;;11.46;39.88;99344.25;4899472;29;20040;-87
2021/04/01 09:46:36;;;;;;;9.48;6.45;;;;;;;11.48;40.00;99340.22;4899470;29;20039;-88
2021/04/01 09:49:09;;;;;;;8.45;5.72;;;;;;;11.54;40.16;99341.81;4899639;29;20043;-87
2021/04/01 09:51:35;;;;;;;6.22;5.63;;;;;;;11.60;40.11;99333.78;4899776;29;20024;-87
2021/04/01 09:54:01;;;;;;;10.63;6.78;;;;;;;11.65;40.45;99334.53;4899557;29;20047;-86
2021/04/01 09:56:29;;;;;;;8.23;5.15;;;;;;;11.64;37.93;99330.25;4899351;29;20123;-85
2021/04/01 09:58:56;;;;;;;6.72;5.70;;;;;;;11.63;38.30;99333.19;4899678;29;20418;-86
2021/04/01 10:01:27;;;;;;;7.03;5.47;;;;;;;11.65;38.28;99334.53;4899335;29;20032;-86
2021/04/01 10:04:05;;;;;;;6.15;5.05;;;;;;;11.62;37.22;99324.38;4899634;29;20123;-85
2021/04/01 10:06:47;;;;;;;7.15;5.88;;;;;;;11.64;38.50;99322.19;4899248;29;20048;-88
2021/04/01 10:09:14;;;;;;;9.30;5.20;;;;;;;11.67;38.83;99313.63;4883539;29;20187;-88
2021/04/01 10:12:07;;;;;;;7.03;4.65;;;;;;;11.73;37.32;99313.59;4899297;29;20409;-88
2021/04/01 10:14:34;;;;;;;6.93;4.60;;;;;;;11.69;37.93;99306.13;4883912;29;20033;-88
2021/04/01 10:17:10;;;;;;;5.72;4.63;;;;;;;11.75;38.63;99298.84;4899198;29;20122;-86
2021/04/01 10:19:41;;;;;;;7.82;6.15;;;;;;;11.79;38.98;99299.09;4916003;29;20162;-87
2021/04/01 10:22:19;;;;;;;9.02;5.55;;;;;;;11.87;38.59;99289.69;4898976;29;20036;-87
2021/04/01 10:24:45;;;;;;;12.20;5.90;;;;;;;11.93;38.69;99289.34;4899026;29;20035;-87
2021/04/01 10:27:30;;;;;;;7.65;5.38;;;;;;;12.04;39.20;99281.28;4898764;29;20123;-86
2021/04/01 10:30:01;;;;;;;5.68;4.13;;;;;;;12.17;35.80;99286.00;4898638;29;20030;-87
2021/04/01 10:32:49;;;;;;;5.53;4.53;;;;;;;12.22;35.23;99279.78;4850843;29;1309482;-86
2021/04/01 10:35:16;;;;;;;6.35;4.07;;;;;;;12.28;36.33;99276.78;4890303;29;20118;-87
2021/04/01 10:37:55;;;;;;;8.30;4.82;;;;;;;12.34;34.69;99280.25;4900018;29;20028;-87
2021/04/01 10:40:21;;;;;;;6.15;5.00;;;;;;;12.32;33.74;99274.34;4899871;29;20024;-87
2021/04/01 10:43:01;;;;;;;5.20;4.00;;;;;;;12.27;35.41;99271.72;4900107;29;20063;-87
2021/04/01 10:45:33;;;;;;;9.18;5.45;;;;;;;12.28;35.71;99263.38;4899843;29;20032;-87
2021/04/01 10:48:16;;;;;;;5.57;4.57;;;;;;;12.32;36.52;99261.72;4899911;29;20036;-87
2021/04/01 10:50:42;;;;;;;7.57;5.55;;;;;;;12.43;36.30;99256.28;4899912;29;20025;-87
2021/04/01 10:53:17;;;;;;;7.47;4.93;;;;;;;12.57;36.01;99267.13;4899800;29;20039;-86
2021/04/01 10:55:43;;;;;;;6.68;4.68;;;;;;;12.63;36.20;99261.44;4899946;29;20028;-87
2021/04/01 10:58:10;;;;;;;8.32;4.45;;;;;;;12.62;35.63;99251.78;4899869;29;20431;-87
2021/04/01 11:00:37;;;;;;;5.40;4.37;;;;;;;12.64;36.03;99243.47;4899458;29;20458;-86
2021/04/01 11:03:05;;;;;;;7.65;5.00;;;;;;;12.74;36.44;99242.53;4899562;29;20502;-87
2021/04/01 11:05:36;;;;;;;;;;;;;;;12.82;36.11;99245.41;4899920;29;20039;-88
2021/04/01 11:08:07;;;;;;;8.93;4.50;;;;;;;12.85;35.98;99237.88;4899474;29;19918;-88
2021/04/01 11:10:33;;;;;;;6.55;5.07;;;;;;;12.86;36.11;99234.88;4899162;29;20029;-86
2021/04/01 11:13:02;;;;;;;5.13;4.50;;;;;;;12.95;35.69;99227.00;4899427;29;20111;-86
2021/04/01 11:15:33;;;;;;;6.10;4.63;;;;;;;13.03;35.56;99228.25;4899278;29;20445;-87
2021/04/01 11:18:10;;;;;;;6.28;4.88;;;;;;;13.06;35.45;99225.81;4899376;29;20047;-88
2021/04/01 11:20:38;;;;;;;7.10;5.28;;;;;;;12.96;35.78;99226.72;4899180;29;20035;-88
2021/04/01 11:23:09;;;;;;;8.40;5.20;;;;;;;12.97;36.25;99224.84;4899371;29;20044;-87
2021/04/01 11:25:36;;;;;;;8.48;6.60;;;;;;;13.01;36.71;99219.69;4898959;29;20067;-87
2021/04/01 11:28:02;;;;;;;9.30;5.45;;;;;;;13.07;35.44;99218.53;4899302;29;20052;-87
2021/04/01 11:30:45;;;;;;;7.63;4.97;;;;;;;13.08;35.47;99204.81;4899016;29;20039;-87
2021/04/01 11:33:11;;;;;;;7.32;5.47;;;;;;;13.20;35.81;99204.41;4898802;29;20048;-87
2021/04/01 11:35:39;;;;;;;5.75;4.63;;;;;;;13.29;35.36;99204.53;4898980;29;20387;-86
2021/04/01 11:38:09;;;;;;;;;;;;;;;13.41;35.23;99193.41;4899533;29;20036;-85
2021/04/01 11:40:38;;;;;;;4.72;4.13;;;;;;;13.47;35.41;99194.13;4898068;29;20289;-87
2021/04/01 11:43:04;;;;;;;4.30;3.42;;;;;;;13.59;35.68;99194.50;4898924;29;20083;-86
2021/04/01 11:45:37;;;;;;;7.03;4.07;;;;;;;13.68;35.23;99178.50;4898612;29;20032;-86
2021/04/01 11:48:05;;;;;;;7.50;4.00;;;;;;;13.78;35.10;99183.72;4898921;29;20028;-86
2021/04/01 11:50:31;;;;;;;4.93;3.95;;;;;;;13.81;34.94;99187.72;4898547;29;20573;-86
2021/04/01 11:53:01;;;;;;;5.30;4.40;;;;;;;13.83;34.50;99180.94;4898890;29;20506;-87
2021/04/01 11:55:28;;;;;;;7.95;4.95;;;;;;;13.88;35.16;99182.75;4898498;29;20039;-87
2021/04/01 11:57:54;;;;;;;4.13;3.75;;;;;;;13.96;34.75;99170.53;4898646;29;20473;-87
2021/04/01 12:00:33;;;;;;;4.95;3.88;;;;;;;14.02;34.69;99174.72;4898415;29;20143;-87
2021/04/01 12:03:10;;;;;;;4.22;3.63;;;;;;;14.11;35.37;99167.56;4898573;29;20163;-86
2021/04/01 12:05:43;;;;;;;5.72;3.58;;;;;;;14.18;35.13;99167.16;4898444;29;20088;-85
2021/04/01 12:08:09;;;;;;;5.93;4.38;;;;;;;14.30;34.21;99161.31;4898436;29;20047;-86
2021/04/01 12:10:35;;;;;;;7.10;3.85;;;;;;;14.36;34.58;99150.16;4898278;29;20051;-86
2021/04/01 12:13:01;;;;;;;6.20;3.83;;;;;;;14.41;34.62;99152.75;4898506;29;20433;-87
2021/04/01 12:15:33;;;;;;;6.50;4.10;;;;;;;14.51;35.06;99154.47;4898502;29;20040;-86
2021/04/01 12:18:00;;;;;;;5.97;3.38;;;;;;;14.52;34.13;99139.09;4898494;29;20038;-86
2021/04/01 12:20:26;;;;;;;5.05;3.42;;;;;;;14.62;34.23;99141.56;4898042;29;20032;-85
2021/04/01 12:22:55;;;;;;;6.25;3.80;;;;;;;14.70;34.41;99140.91;4898257;29;20026;-86
2021/04/01 12:25:24;;;;;;;7.47;4.50;;;;;;;14.76;33.97;99135.41;4898022;29;20048;-85
2021/04/01 12:27:56;;;;;;;4.18;3.28;;;;;;;14.77;33.34;99134.31;4898148;29;20043;-87
2021/04/01 12:30:40;;;;;;;4.78;4.28;;;;;;;14.69;32.94;99130.44;4897932;29;20028;-85
2021/04/01 12:33:12;;;;;;;3.83;3.30;;;;;;;14.69;33.22;99117.78;4898034;29;20047;-86
2021/04/01 12:35:54;;;;;;;4.35;3.97;;;;;;;14.69;34.68;99125.84;4897971;29;20263;-87
2021/04/01 12:38:32;;;;;;;6.90;4.82;;;;;;;14.63;33.41;99116.25;4897868;29;20028;-87
2021/04/01 12:40:59;;;;;;;5.43;3.88;;;;;;;14.70;34.47;99118.59;4897911;29;20055;-86
2021/04/01 12:43:35;;;;;;;4.43;3.80;;;;;;;14.67;33.82;99117.28;4897884;29;20528;-85
2021/04/01 12:46:03;;;;;;;5.28;3.97;;;;;;;14.62;33.73;99106.56;4897648;29;20043;-85
2021/04/01 12:48:40;;;;;;;5.97;4.37;;;;;;;14.62;34.21;99111.19;4897754;29;20036;-85
2021/04/01 12:51:07;;;;;;;4.10;3.70;;;;;;;14.61;33.75;99106.88;4897936;29;20127;-85
2021/04/01 12:53:33;;;;;;;4.18;3.72;;;;;;;14.58;34.24;99106.38;4897446;29;20036;-85
2021/04/01 12:56:07;;;;;;;5.05;3.80;;;;;;;14.64;34.13;99101.69;4897869;29;20127;-86
2021/04/01 12:58:36;;;;;;;7.05;4.55;;;;;;;14.64;34.43;99090.16;4897547;29;20036;-87
2021/04/01 13:01:19;;;;;;;4.65;4.05;;;;;;;14.67;34.09;99103.03;4883395;29;20052;-86
2021/04/01 13:03:45;;;;;;;5.32;4.35;;;;;;;14.69;33.81;99100.84;4886571;29;20063;-82
2021/04/01 13:06:16;;;;;;;7.47;3.47;;;;;;;14.69;33.76;99098.94;4879102;29;20063;-85
2021/04/01 13:08:56;;;;;;;7.80;4.10;;;;;;;14.71;34.49;99087.88;4879060;29;20031;-86
2021/04/01 13:11:23;;;;;;;5.90;4.03;;;;;;;14.74;34.02;99095.34;4882503;29;20028;-91
2021/04/01 13:13:48;;;;;;;6.00;4.97;;;;;;;14.76;34.36;99079.69;4915583;29;20047;-85
2021/04/01 13:16:14;;;;;;;5.68;5.00;;;;;;;14.82;34.38;99077.69;4913120;29;20024;-83
2021/04/01 13:18:40;;;;;;;9.40;4.55;;;;;;;14.89;34.70;99080.72;4897231;29;20075;-87
2021/04/01 13:21:17;;;;;;;6.40;4.57;;;;;;;14.95;34.97;99089.50;4897579;29;20024;-92
2021/04/01 13:23:57;;;;;;;4.82;3.83;;;;;;;15.03;34.26;99078.00;4929251;29;20043;-82
2021/04/01 13:26:23;;;;;;;5.57;3.95;;;;;;;15.09;34.13;99073.28;4897333;29;20131;-81
2021/04/01 13:28:49;;;;;;;6.72;4.38;;;;;;;15.17;34.24;99068.00;4887824;29;20092;-81
2021/04/01 13:31:57;;;;;;;4.18;3.70;;;;;;;15.14;33.52;99071.28;4878837;29;20028;-80
2021/04/01 13:34:12;;;;;;;5.40;4.43;;;;;;;15.09;33.50;99067.91;4899143;29;20090;-81
2021/04/01 13:40:10;;;;;;;8.38;4.82;;;;;;;14.97;33.80;99053.09;4918516;29;20039;-85
2021/04/01 13:42:23;;;;;;;4.63;3.35;;;;;;;14.91;34.22;99053.53;4912744;29;20044;-82
2021/04/01 13:47:18;;;;;;;5.70;5.00;;;;;;;14.91;34.19;99059.69;4913598;29;20036;-79
2021/04/01 13:49:45;;;;;;;4.68;4.25;;;;;;;14.88;34.60;99053.03;4898925;29;20031;-80
2021/04/01 13:55:04;;;;;;;7.10;4.72;;;;;;;14.95;33.79;99046.41;4912577;29;20028;-80
2021/04/01 13:58:08;;;;;;;7.50;5.10;;;;;;;14.89;33.78;99037.66;4912364;29;20051;-79
2021/04/01 14:11:19;;;;;;;7.05;3.97;;;;;;;14.89;34.63;99033.09;4934660;29;20035;-84
2021/04/01 14:13:45;;;;;;;7.15;5.32;;;;;;;14.95;33.88;99031.06;4905762;29;20043;-82
2021/04/01 14:16:14;;;;;;;7.40;5.47;;;;;;;14.96;33.92;99029.94;4899907;29;20453;-83
2021/04/01 14:18:48;;;;;;;7.20;5.15;;;;;;;14.98;33.77;99037.75;4903043;29;20039;-84
2021/04/01 14:21:16;;;;;;;6.00;4.95;;;;;;;14.97;33.46;99031.53;4899852;29;20122;-83
2021/04/01 14:26:34;;;;;;;6.60;5.55;;;;;;;15.01;33.67;99031.72;4972187;28;20050;-96
2021/04/01 14:29:27;;;;;;;6.35;4.97;;;;;;;15.07;33.70;99041.28;4968268;28;20027;-96
2021/04/01 14:32:12;;;;;;;12.77;5.68;;;;;;;15.14;34.00;99038.94;4975108;28;20031;-94
2021/04/01 14:34:39;;;;;;;7.07;5.20;;;;;;;15.22;33.74;99032.03;4961712;28;20029;-95
2021/04/01 14:37:08;;;;;;;10.10;5.47;;;;;;;15.21;33.08;99025.84;4947136;28;20030;-96
2021/04/01 14:39:34;;;;;;;5.72;4.90;;;;;;;15.21;33.10;99033.16;4926376;28;20030;-94
2021/04/01 14:42:06;;;;;;;7.65;5.22;;;;;;;15.19;32.94;99033.44;4949405;28;20030;-93
2021/04/01 14:44:34;;;;;;;8.32;5.65;;;;;;;15.17;33.07;99026.78;4957481;28;20062;-96
2021/04/01 14:47:01;;;;;;;6.95;5.75;;;;;;;15.16;32.98;99028.69;4958689;28;20054;-96
2021/04/01 15:01:30;;;;;;;8.07;5.40;;;;;;;15.32;32.74;99020.22;5086144;27;20408;-87
2021/04/01 15:03:59;;;;;;;8.57;5.15;;;;;;;15.32;32.80;99012.94;5081002;28;20047;-85
2021/04/01 15:06:26;;;;;;;6.80;5.13;;;;;;;15.35;32.67;99020.38;5082729;28;20393;-83
2021/04/01 15:08:53;;;;;;;7.60;5.72;;;;;;;15.35;32.54;99024.97;5065485;28;20017;-79
2021/04/01 15:11:20;;;;;;;6.63;5.03;;;;;;;15.33;32.89;99014.53;5065814;28;20044;-82
2021/04/01 15:13:46;;;;;;;5.72;5.03;;;;;;;15.34;32.96;99015.31;5065489;28;20029;-82
2021/04/01 15:16:12;;;;;;;8.00;5.47;;;;;;;15.39;32.87;99025.94;5065864;28;20385;-84
2021/04/01 15:18:38;;;;;;;13.93;7.55;;;;;;;15.31;32.13;99013.25;5065140;28;20407;-80
2021/04/01 15:21:04;;;;;;;6.40;4.85;;;;;;;15.29;31.98;99020.84;5079003;28;20044;-79
2021/04/01 15:23:29;;;;;;;5.20;4.45;;;;;;;15.25;31.89;99030.63;5086210;28;20377;-78
2021/04/01 15:25:55;;;;;;;8.43;4.97;;;;;;;15.14;31.94;99017.41;5076765;28;20391;-77
2021/04/01 15:28:21;;;;;;;5.40;4.78;;;;;;;15.03;31.96;99019.53;5065653;28;20037;-86
2021/04/01 15:30:48;;;;;;;9.02;5.53;;;;;;;14.94;31.91;99021.41;5066200;28;20558;-90
2021/04/01 15:44:43;;;;;;;9.98;5.57;;;;;;;14.85;32.36;99012.44;4594867;27;15067723;-87
2021/04/01 15:47:08;;;;;;;4.72;4.20;;;;;;;14.83;32.15;99010.06;5145256;27;20034;-86
2021/04/01 15:49:34;;;;;;;10.77;5.53;;;;;;;14.82;32.33;99011.16;5127991;28;20019;-82
2021/04/01 15:51:59;;;;;;;5.95;5.18;;;;;;;14.77;32.22;99005.09;5128951;28;20023;-94
2021/04/01 15:54:25;;;;;;;5.18;4.20;;;;;;;14.71;32.67;98999.06;5128320;28;20153;-89
2021/04/01 15:56:51;;;;;;;5.05;4.03;;;;;;;14.73;32.51;99003.03;5127377;28;20024;-93
2021/04/01 15:59:17;;;;;;;7.80;4.60;;;;;;;14.71;32.33;99004.44;5125454;28;20121;-91
2021/04/01 16:01:43;;;;;;;11.45;4.88;;;;;;;14.65;31.69;99001.06;5129842;28;20063;-93
2021/04/01 16:04:09;;;;;;;11.00;4.55;;;;;;;14.62;31.93;99003.53;5116347;28;20020;-87
2021/04/01 16:06:34;;;;;;;5.05;3.80;;;;;;;14.62;32.01;99011.59;5106800;28;20080;-88
2021/04/01 16:08:59;;;;;;;5.80;4.07;;;;;;;14.58;32.01;99006.03;5122992;28;20027;-84
2021/04/01 16:11:25;;;;;;;6.13;4.22;;;;;;;14.53;31.95;99008.84;5128101;28;20070;-89
2021/04/01 16:13:50;;;;;;;5.07;4.40;;;;;;;14.50;32.04;99001.34;5124992;28;20023;-87
2021/04/01 16:16:17;;;;;;;5.80;3.90;;;;;;;14.42;31.92;99005.56;5106176;28;20034;-84
2021/04/01 16:18:43;;;;;;;9.85;5.43;;;;;;;14.35;32.31;98994.41;5106114;28;20054;-83
2021/04/01 16:21:08;;;;;;;5.47;3.88;;;;;;;14.32;32.42;98997.69;5108471;28;20074;-84
2021/04/01 16:23:33;;;;;;;7.45;4.75;;;;;;;14.26;32.56;98997.03;5127220;28;20079;-92
2021/04/01 16:25:59;;;;;;;11.00;6.68;;;;;;;14.24;32.68;98988.47;5127156;28;20035;-86
2021/04/01 16:28:26;;;;;;;14.13;7.43;;;;;;;14.20;33.18;98990.16;5125221;28;20122;-87
2021/04/01 16:30:52;;;;;;;12.87;7.83;;;;;;;14.15;33.27;98990.28;5125661;28;20019;-86
2021/04/01 16:33:22;;;;;;;14.32;8.00;;;;;;;14.08;33.64;98991.47;5126144;28;20644;-86
2021/04/01 16:35:49;;;;;;;10.30;6.50;;;;;;;14.03;33.11;98988.88;5125758;28;20063;-85
2021/04/01 16:38:16;;;;;;;13.20;8.05;;;;;;;13.99;33.49;98987.09;5126165;28;20030;-88
2021/04/01 16:40:41;;;;;;;10.52;6.60;;;;;;;13.97;33.89;98990.06;5125528;28;20023;-89
2021/04/01 16:43:08;;;;;;;14.63;8.55;;;;;;;13.96;34.20;98988.47;5125279;28;20545;-85
2021/04/01 16:45:34;;;;;;;14.63;8.18;;;;;;;13.92;33.99;98998.25;5112757;28;20016;-85
2021/04/01 16:47:59;;;;;;;12.52;7.80;;;;;;;13.88;33.95;99000.75;5112425;28;20032;-86
2021/04/01 16:50:26;;;;;;;13.82;8.65;;;;;;;13.84;33.80;99007.81;5109992;28;20138;-86
2021/04/01 16:53:03;;;;;;;16.95;8.82;;;;;;;13.81;34.02;99011.09;5109998;28;20116;-85
2021/04/01 16:55:32;;;;;;;14.82;8.00;;;;;;;13.79;34.27;99010.59;5109430;28;20027;-83
2021/04/01 16:57:59;;;;;;;9.68;6.53;;;;;;;13.71;34.34;99006.72;5109767;28;20112;-85
2021/04/01 17:00:25;;;;;;;10.18;6.65;;;;;;;13.64;34.03;99005.50;5111800;28;20062;-87
2021/04/01 17:02:51;;;;;;;10.57;7.57;;;;;;;13.60;34.59;99002.63;5111078;28;20102;-86
2021/04/01 17:05:16;;;;;;;14.30;8.30;;;;;;;13.53;34.47;99002.22;5104917;28;20024;-87
2021/04/01 17:07:42;;;;;;;10.75;6.78;;;;;;;13.44;34.42;99004.78;5111870;28;20102;-86
2021/04/01 17:10:08;;;;;;;16.70;8.63;;;;;;;13.35;34.67;99001.94;5102193;28;20476;-88
2021/04/01 17:12:35;;;;;;;15.80;10.98;;;;;;;13.24;35.27;99003.22;5111148;28;20028;-87
2021/04/01 17:15:00;;;;;;;19.98;10.35;;;;;;;13.19;35.08;99000.63;5110233;28;20055;-87
2021/04/01 17:17:28;;;;;;;15.40;10.07;;;;;;;13.12;35.27;99009.84;5112485;28;20118;-91
2021/04/01 17:19:53;;;;;;;20.65;12.20;;;;;;;13.06;35.59;99008.34;5111639;28;20110;-88
2021/04/01 17:22:19;;;;;;;19.08;11.98;;;;;;;13.01;35.32;99007.63;5112747;28;20567;-92
2021/04/01 17:24:44;;;;;;;15.15;10.00;;;;;;;12.96;35.60;99021.91;5111747;28;20019;-88
2021/04/01 17:27:10;;;;;;;19.27;12.80;;;;;;;12.92;35.06;99019.00;5112093;28;20031;-83
2021/04/01 17:29:35;;;;;;;24.80;14.32;;;;;;;12.87;35.33;99019.09;5112424;28;20019;-84
2021/04/01 17:32:01;;;;;;;26.33;15.23;;;;;;;12.82;35.59;99019.19;5112071;28;20024;-86
2021/04/01 17:34:26;;;;;;;17.90;11.18;;;;;;;12.77;35.07;99022.72;5106098;28;20391;-86
2021/04/01 17:36:53;;;;;;;22.00;12.82;;;;;;;12.76;35.05;99023.03;5093147;28;20031;-84
2021/04/01 17:39:19;;;;;;;21.00;13.65;;;;;;;12.77;35.56;99028.09;5091141;28;20031;-83
2021/04/01 17:41:45;;;;;;;18.20;13.20;;;;;;;12.79;35.15;99025.09;5090779;28;20024;-85
2021/04/01 17:44:11;;;;;;;24.15;13.63;;;;;;;12.79;35.44;99022.44;5098332;28;20394;-85
2021/04/01 17:46:36;;;;;;;24.73;13.77;;;;;;;12.80;35.71;99034.75;5107333;28;20022;-85
2021/04/01 17:49:02;;;;;;;19.60;12.77;;;;;;;12.82;35.20;99033.38;5098811;28;20407;-87
2021/04/01 17:51:28;;;;;;;20.23;13.05;;;;;;;12.86;35.41;99041.66;5100638;28;20429;-94
2021/04/01 17:53:53;;;;;;;17.27;11.02;;;;;;;12.86;35.69;99046.22;5100184;28;20099;-82
2021/04/01 17:56:18;;;;;;;25.08;14.02;;;;;;;12.87;36.11;99045.16;5100312;28;20030;-82
2021/04/01 17:58:52;;;;;;;26.73;15.50;;;;;;;12.87;36.24;99043.25;5097608;28;20055;-80
2021/04/01 18:01:27;;;;;;;32.88;18.95;;;;;;;12.88;36.70;99052.13;5094707;28;20020;-81
2021/04/01 18:28:33;;;;;;;11.52;6.75;;;;;;;12.33;37.43;99059.53;5092138;28;20028;-78
2021/04/01 18:31:13;;;;;;;11.70;5.65;;;;;;;12.21;37.76;99056.47;5090403;28;20031;-84
2021/04/01 18:33:42;;;;;;;11.23;6.90;;;;;;;12.11;38.03;99060.06;5083288;28;20031;-81
2021/04/01 18:36:27;;;;;;;11.13;6.47;;;;;;;12.04;38.08;99059.59;5091679;28;20066;-85
2021/04/01 18:44:04;;;;;;;8.90;5.32;;;;;;;11.78;39.06;99067.88;5093821;28;20043;-84
2021/04/01 18:46:46;;;;;;;8.70;5.22;;;;;;;11.76;39.21;99074.59;5090291;28;20212;-83
2021/04/01 18:49:23;;;;;;;7.43;5.50;;;;;;;11.69;39.48;99078.41;5090391;28;20056;-81
2021/04/01 18:51:51;;;;;;;8.93;4.90;;;;;;;11.66;39.44;99068.25;5090115;28;20020;-81
2021/04/01 18:54:22;;;;;;;9.50;5.60;;;;;;;11.63;39.71;99070.69;5088704;28;20495;-86
2021/04/01 18:56:53;;;;;;;10.35;6.28;;;;;;;11.58;40.07;99068.84;5097079;28;20115;-78
2021/04/01 18:59:26;;;;;;;8.52;5.35;;;;;;;11.54;40.10;99062.47;5089645;28;20051;-81
2021/04/01 19:02:26;;;;;;;8.55;4.97;;;;;;;11.50;40.19;99061.44;5089425;28;20052;-83
2021/04/01 19:05:31;;;;;;;8.00;5.60;;;;;;;11.48;39.94;99063.59;5088601;28;20035;-77
2021/04/01 19:07:40;;;;;;;8.32;5.53;;;;;;;11.43;40.25;99067.09;5089535;28;20097;-84
2021/04/01 19:10:15;;;;;;;10.50;7.03;;;;;;;11.41;40.50;99065.78;5091175;28;20315;-85
2021/04/01 19:24:01;;;;;;;19.08;9.07;;;;;;;11.25;41.31;99065.91;5090035;28;20020;-82
2021/04/01 19:26:28;;;;;;;15.70;8.60;;;;;;;11.18;40.82;99055.53;5089846;28;20487;-82
2021/04/01 19:28:53;;;;;;;14.70;8.10;;;;;;;11.15;41.43;99057.97;5089178;28;20028;-85
2021/04/01 19:31:19;;;;;;;17.38;8.27;;;;;;;11.10;41.59;99060.69;5089842;28;20479;-79
2021/04/01 19:33:45;;;;;;;12.85;7.78;;;;;;;11.08;41.19;99062.84;5087100;28;20475;-83
2021/04/01 19:36:11;;;;;;;16.45;8.63;;;;;;;11.07;41.31;99056.69;5089475;28;20110;-83
2021/04/01 19:38:37;;;;;;;10.98;7.28;;;;;;;11.07;41.43;99058.56;5089806;28;20114;-86
2021/04/01 19:41:05;;;;;;;15.05;8.90;;;;;;;11.07;41.49;99058.56;5069583;28;20138;-80
2021/04/01 19:43:32;;;;;;;15.68;8.98;;;;;;;11.08;41.39;99050.25;5080983;28;20431;-80
2021/04/01 19:46:00;;;;;;;13.07;8.50;;;;;;;11.09;41.49;99053.75;5089440;28;20039;-84
2021/04/01 19:48:27;;;;;;;15.10;9.10;;;;;;;11.08;41.62;99052.13;5089687;28;20031;-80
2021/04/01 19:50:53;;;;;;;17.10;8.70;;;;;;;11.09;41.23;99059.88;5089180;28;20464;-83
2021/04/01 19:53:18;;;;;;;15.60;9.55;;;;;;;11.08;41.37;99052.13;5088753;28;20027;-82
2021/04/01 19:55:44;;;;;;;14.90;9.40;;;;;;;11.07;41.39;99048.66;5089704;28;20441;-83
2021/04/01 19:58:11;;;;;;;10.95;9.23;;;;;;;11.07;41.35;99048.66;5089390;28;20457;-82
2021/04/01 20:00:38;;;;;;;17.02;9.98;;;;;;;11.05;41.75;99051.59;5088946;28;20110;-80
2021/04/01 20:03:08;;;;;;;18.17;10.85;;;;;;;11.04;42.06;99051.88;5088571;28;20309;-79
2021/04/01 20:05:36;;;;;;;17.35;9.93;;;;;;;11.03;41.97;99048.44;5089328;28;20024;-82
2021/04/01 20:08:02;;;;;;;17.13;10.70;;;;;;;11.02;42.24;99048.69;5088908;28;20039;-81
2021/04/01 20:10:30;;;;;;;23.73;11.27;;;;;;;10.96;42.33;99039.91;5089039;28;20024;-81
2021/04/01 20:12:56;;;;;;;17.40;10.15;;;;;;;10.94;42.45;99047.41;5088678;28;20016;-78
2021/04/01 20:15:22;;;;;;;21.90;12.90;;;;;;;10.92;42.95;99054.91;5089319;28;20020;-80
2021/04/01 20:17:48;;;;;;;23.70;13.57;;;;;;;10.89;43.63;99048.25;5089201;28;20031;-82
2021/04/01 20:20:17;;;;;;;22.92;11.68;;;;;;;10.82;43.52;99049.63;5091610;28;20395;-82
2021/04/01 20:22:43;;;;;;;20.55;9.82;;;;;;;10.78;43.41;99053.91;5092262;28;20129;-84
2021/04/01 20:25:13;;;;;;;18.70;9.77;;;;;;;10.69;43.79;99040.34;5092744;28;20043;-82
2021/04/01 20:27:40;;;;;;;14.27;8.95;;;;;;;10.62;43.81;99040.66;5092465;28;20361;-78
2021/04/01 20:30:07;;;;;;;12.85;8.45;;;;;;;10.56;43.40;99045.22;5092764;28;20038;-80
2021/04/01 20:32:33;;;;;;;10.60;7.25;;;;;;;10.49;43.36;99047.41;5090402;28;20031;-81
2021/04/01 20:34:58;;;;;;;13.35;7.82;;;;;;;10.45;43.56;99051.72;5090955;28;20016;-80
2021/04/01 20:37:24;;;;;;;15.10;8.02;;;;;;;10.38;44.38;99053.88;5091372;28;20497;-80
2021/04/01 20:39:49;;;;;;;12.90;7.60;;;;;;;10.31;44.26;99051.44;5090575;28;20040;-78
2021/04/01 20:42:15;;;;;;;14.88;8.57;;;;;;;10.24;44.04;99042.94;5091449;28;20027;-77
2021/04/01 20:44:42;;;;;;;15.98;8.05;;;;;;;10.20;44.42;99041.88;5090793;28;20111;-82